createdAt,value
2022-09-20T00:01:24.298Z,0
2022-09-20T00:03:25.206Z,0
2022-09-20T00:05:26.247Z,0
2022-09-20T00:07:27.476Z,0
2022-09-20T00:09:28.627Z,0
2022-09-20T00:11:29.688Z,0
2022-09-20T00:13:30.659Z,0
2022-09-20T00:15:32.163Z,0
2022-09-20T00:17:33.335Z,0
2022-09-20T00:19:34.485Z,0
2022-09-20T00:21:36.477Z,0
2022-09-20T00:23:37.638Z,0
2022-09-20T00:25:39.653Z,0
2022-09-20T00:27:40.871Z,0
2022-09-20T00:29:42.102Z,0
2022-09-20T00:31:43.936Z,0
2022-09-20T00:33:45.082Z,0
2022-09-20T00:35:46.684Z,0
2022-09-20T00:37:48.632Z,0
2022-09-20T00:39:49.620Z,0
2022-09-20T00:43:51.760Z,0
2022-09-20T00:45:52.785Z,0
2022-09-20T00:47:53.892Z,0
2022-09-20T00:49:55.004Z,0
2022-09-20T00:53:58.710Z,0
2022-09-20T00:56:00.597Z,0
2022-09-20T00:58:02.553Z,0
2022-09-20T01:00:03.813Z,0
2022-09-20T01:02:04.850Z,0
2022-09-20T01:06:07.432Z,0
2022-09-20T01:08:08.740Z,0
2022-09-20T01:10:09.931Z,0
2022-09-20T01:12:11.604Z,0
2022-09-20T01:16:14.788Z,0
2022-09-20T01:18:15.855Z,0
2022-09-20T01:20:17.562Z,0
2022-09-20T01:22:18.811Z,0
2022-09-20T01:26:21.903Z,0
2022-09-20T01:28:23.792Z,0
2022-09-20T01:30:25.383Z,0
2022-09-20T01:32:27.191Z,0
2022-09-20T01:36:29.447Z,0
2022-09-20T01:38:31.483Z,0
2022-09-20T01:40:32.857Z,0
2022-09-20T01:42:34.467Z,0
2022-09-20T01:44:36.076Z,0
2022-09-20T01:46:37.369Z,0
2022-09-20T01:48:39.186Z,0
2022-09-20T01:50:40.412Z,0
2022-09-20T01:52:41.623Z,0
2022-09-20T01:54:43.010Z,0
2022-09-20T01:56:44.786Z,0
2022-09-20T01:58:48.117Z,0
2022-09-20T02:00:48.169Z,0
2022-09-20T02:02:49.977Z,0
2022-09-20T02:04:51.643Z,0
2022-09-20T02:08:54.202Z,0
2022-09-20T02:10:56.070Z,0
2022-09-20T02:12:57.126Z,0
2022-09-20T02:14:58.644Z,0
2022-09-20T02:17:00.148Z,0
2022-09-20T02:19:01.230Z,0
2022-09-20T02:21:02.189Z,0
2022-09-20T02:23:06.516Z,0
2022-09-20T02:25:04.413Z,0
2022-09-20T02:27:05.756Z,0
2022-09-20T02:29:07.631Z,0
2022-09-20T02:31:08.999Z,0
2022-09-20T02:33:10.267Z,0
2022-09-20T02:35:11.532Z,0
2022-09-20T02:37:13.138Z,0
2022-09-20T02:39:14.326Z,0
2022-09-20T02:41:15.415Z,0
2022-09-20T02:43:17.174Z,0
2022-09-20T02:45:18.276Z,0
2022-09-20T02:47:20.089Z,0
2022-09-20T02:49:22.056Z,0
2022-09-20T02:51:23.280Z,0
2022-09-20T02:53:24.837Z,0
2022-09-20T02:55:25.904Z,0
2022-09-20T02:57:27.018Z,0
2022-09-20T02:59:28.006Z,0
2022-09-20T03:01:37.045Z,0
2022-09-20T03:03:29.999Z,0
2022-09-20T03:07:33.868Z,0
2022-09-20T03:09:35.622Z,0
2022-09-20T03:11:36.991Z,0
2022-09-20T03:13:38.456Z,0
2022-09-20T03:17:41.957Z,0
2022-09-20T03:19:43.236Z,0
2022-09-20T03:21:44.877Z,0
2022-09-20T03:23:45.948Z,0
2022-09-20T03:25:47.473Z,0
2022-09-20T03:27:48.500Z,0
2022-09-20T03:29:50.411Z,0
2022-09-20T03:31:51.863Z,0
2022-09-20T03:33:52.970Z,0
2022-09-20T03:35:54.841Z,0
2022-09-20T03:37:55.881Z,0
2022-09-20T03:39:57.501Z,0
2022-09-20T03:41:59.160Z,0
2022-09-20T03:44:00.389Z,0
2022-09-20T03:46:01.550Z,0
2022-09-20T03:50:04.797Z,0
2022-09-20T03:52:06.219Z,0
2022-09-20T03:54:07.685Z,0
2022-09-20T03:56:09.474Z,0
2022-09-20T04:00:13.042Z,0
2022-09-20T04:01:05.986Z,0
2022-09-20T04:03:07.594Z,0
2022-09-20T04:05:09.560Z,0
2022-09-20T04:07:10.982Z,0
2022-09-20T04:09:12.749Z,0
2022-09-20T04:11:14.567Z,0
2022-09-20T04:13:15.570Z,0
2022-09-20T04:15:17.194Z,0
2022-09-20T04:17:19.142Z,0
2022-09-20T04:19:20.705Z,0
2022-09-20T04:21:21.910Z,0
2022-09-20T04:23:23.749Z,0
2022-09-20T04:25:24.967Z,0
2022-09-20T04:27:26.250Z,0
2022-09-20T04:29:27.769Z,0
2022-09-20T04:31:29.103Z,0
2022-09-20T04:33:30.904Z,0
2022-09-20T04:35:32.322Z,0
2022-09-20T04:37:34.237Z,0.14
2022-09-20T04:39:36.183Z,0.14
2022-09-20T04:41:38.179Z,0.842
2022-09-20T04:43:39.561Z,0
2022-09-20T04:45:41.521Z,0
2022-09-20T04:47:42.515Z,0
2022-09-20T04:49:44.188Z,0
2022-09-20T04:51:45.752Z,0
2022-09-20T04:53:46.761Z,0
2022-09-20T04:55:47.959Z,0
2022-09-20T04:57:49.661Z,0
2022-09-20T04:59:51.358Z,0
2022-09-20T05:01:52.383Z,0
2022-09-20T05:03:53.425Z,0
2022-09-20T05:05:54.670Z,1.965
2022-09-20T05:07:56.472Z,1.263
2022-09-20T05:09:58.080Z,0.842
2022-09-20T05:12:00.127Z,0
2022-09-20T05:14:01.317Z,0
2022-09-20T05:16:03.342Z,0
2022-09-20T05:20:05.689Z,0
2022-09-20T05:22:07.042Z,0
2022-09-20T05:24:09.448Z,0
2022-09-20T05:26:10.227Z,0
2022-09-20T05:28:11.908Z,0
2022-09-20T05:30:13.863Z,0
2022-09-20T05:32:15.154Z,0
2022-09-20T05:34:16.938Z,0
2022-09-20T05:36:18.355Z,0
2022-09-20T05:38:19.412Z,0
2022-09-20T05:40:20.576Z,0
2022-09-20T05:42:21.616Z,0
2022-09-20T05:44:22.733Z,0
2022-09-20T05:46:24.155Z,0
2022-09-20T05:48:25.526Z,0
2022-09-20T05:52:28.037Z,0
2022-09-20T05:54:29.431Z,0
2022-09-20T05:56:31.228Z,0
2022-09-20T05:58:32.329Z,0
2022-09-20T06:02:35.620Z,0
2022-09-20T06:04:36.919Z,0
2022-09-20T06:06:38.006Z,0
2022-09-20T06:08:39.274Z,0
2022-09-20T06:10:40.395Z,0
2022-09-20T06:12:41.778Z,0
2022-09-20T06:14:43.504Z,0
2022-09-20T06:16:45.270Z,0
2022-09-20T06:18:46.679Z,0
2022-09-20T06:20:48.564Z,0
2022-09-20T06:24:51.516Z,0
2022-09-20T06:26:53.328Z,0
2022-09-20T06:28:58.195Z,0
2022-09-20T06:30:56.481Z,0
2022-09-20T06:34:59.313Z,0.982
2022-09-20T06:37:00.870Z,0
2022-09-20T06:39:02.282Z,0
2022-09-20T06:41:03.838Z,0
2022-09-20T06:45:06.737Z,0
2022-09-20T06:47:07.788Z,0
2022-09-20T06:49:09.354Z,0
2022-09-20T06:51:11.138Z,0
2022-09-20T06:53:12.515Z,0
2022-09-20T06:55:14.304Z,0
2022-09-20T06:57:15.995Z,0.14
2022-09-20T06:59:17.769Z,0
2022-09-20T07:01:29.230Z,0
2022-09-20T07:03:20.466Z,0
2022-09-20T07:05:21.857Z,0
2022-09-20T07:07:23.413Z,0
2022-09-20T07:09:24.602Z,0
2022-09-20T07:11:26.085Z,0
2022-09-20T07:13:27.598Z,0
2022-09-20T07:15:28.870Z,0.982
2022-09-20T07:17:30.650Z,0
2022-09-20T07:19:32.104Z,0
2022-09-20T07:21:33.805Z,0
2022-09-20T07:23:34.856Z,0.28
2022-09-20T07:25:36.735Z,0.421
2022-09-20T07:27:37.827Z,0.702
2022-09-20T07:29:39.563Z,0.842
2022-09-20T07:31:41.430Z,0
2022-09-20T07:33:42.947Z,0
2022-09-20T07:35:44.395Z,0.982
2022-09-20T07:37:45.664Z,0
2022-09-20T07:39:47.490Z,0
2022-09-20T07:41:48.843Z,0.14
2022-09-20T07:43:49.970Z,0
2022-09-20T07:45:51.485Z,2.527
2022-09-20T07:47:52.326Z,0
2022-09-20T07:49:53.565Z,0.702
2022-09-20T07:51:55.382Z,0.842
2022-09-20T07:53:56.638Z,0
2022-09-20T07:55:57.865Z,0
2022-09-20T07:57:59.179Z,0.421
2022-09-20T08:00:00.840Z,4.071
2022-09-20T08:02:01.992Z,0.28
2022-09-20T08:04:03.501Z,0
2022-09-20T08:06:04.505Z,0.702
2022-09-20T08:08:05.542Z,1.404
2022-09-20T08:10:06.852Z,1.684
2022-09-20T08:14:09.494Z,0.842
2022-09-20T08:16:10.593Z,0.561
2022-09-20T08:18:11.759Z,3.51
2022-09-20T08:20:13.493Z,0
2022-09-20T08:22:14.547Z,1.404
2022-09-20T08:26:17.842Z,1.825
2022-09-20T08:28:19.254Z,5.475
2022-09-20T08:30:23.324Z,3.088
2022-09-20T08:32:21.576Z,2.386
2022-09-20T08:34:23.329Z,3.931
2022-09-20T08:36:24.964Z,5.335
2022-09-20T08:40:27.035Z,3.229
2022-09-20T08:42:28.143Z,6.177
2022-09-20T08:44:29.544Z,1.263
2022-09-20T08:46:30.847Z,0.28
2022-09-20T08:48:32.986Z,2.246
2022-09-20T08:50:34.230Z,3.088
2022-09-20T08:52:36.772Z,5.756
2022-09-20T08:54:37.110Z,0.842
2022-09-20T08:58:39.240Z,5.335
2022-09-20T09:00:40.809Z,4.212
2022-09-20T09:04:44.143Z,2.948
2022-09-20T09:08:46.911Z,0.842
2022-09-20T09:10:48.436Z,1.404
2022-09-20T09:12:49.575Z,2.527
2022-09-20T09:14:50.842Z,1.263
2022-09-20T09:16:52.023Z,4.352
2022-09-20T09:18:53.746Z,5.756
2022-09-20T09:20:55.531Z,3.229
2022-09-20T09:22:57.028Z,0.982
2022-09-20T09:24:58.009Z,5.054
2022-09-20T09:26:59.406Z,6.598
2022-09-20T09:29:00.740Z,5.616
2022-09-20T09:31:02.076Z,3.65
2022-09-20T09:33:02.939Z,1.825
2022-09-20T09:35:03.913Z,2.106
2022-09-20T09:37:05.051Z,3.369
2022-09-20T09:39:06.313Z,2.948
2022-09-20T09:41:07.410Z,5.896
2022-09-20T09:43:09.185Z,5.054
2022-09-20T09:45:10.520Z,1.684
2022-09-20T09:47:11.941Z,2.386
2022-09-20T09:49:13.978Z,1.684
2022-09-20T09:51:15.286Z,3.79
2022-09-20T09:53:16.632Z,0.421
2022-09-20T09:55:19.067Z,1.404
2022-09-20T09:57:20.760Z,1.123
2022-09-20T09:59:22.670Z,0
2022-09-20T10:01:23.998Z,2.246
2022-09-20T10:03:25.108Z,1.404
2022-09-20T10:05:26.007Z,0.561
2022-09-20T10:07:27.259Z,0.14
2022-09-20T10:09:28.930Z,3.931
2022-09-20T10:11:30.630Z,3.931
2022-09-20T10:13:34.222Z,2.106
2022-09-20T10:15:33.769Z,3.931
2022-09-20T10:17:34.952Z,1.825
2022-09-20T10:19:36.335Z,2.667
2022-09-20T10:21:37.791Z,3.65
2022-09-20T10:24:01.814Z,3.931
2022-09-20T10:25:39.886Z,1.965
2022-09-20T10:27:40.829Z,1.684
2022-09-20T10:29:42.104Z,2.948
2022-09-20T10:31:43.296Z,0.842
2022-09-20T10:33:44.387Z,3.65
2022-09-20T10:35:45.270Z,4.212
2022-09-20T10:39:47.438Z,5.194
2022-09-20T10:41:48.999Z,5.756
2022-09-20T10:43:50.611Z,3.79
2022-09-20T10:46:20.797Z,1.544
2022-09-20T10:46:35.494Z,3.65
2022-09-20T10:48:36.789Z,2.246
2022-09-20T10:50:37.822Z,6.177
2022-09-20T10:52:39.358Z,2.246
2022-09-20T10:54:40.474Z,2.948
2022-09-20T10:56:41.473Z,1.123
2022-09-20T10:58:42.545Z,0.842
2022-09-20T11:02:45.955Z,5.054
2022-09-20T11:04:47.278Z,2.948
2022-09-20T11:06:49.017Z,0.14
2022-09-20T11:08:49.888Z,1.965
2022-09-20T11:10:51.575Z,2.808
2022-09-20T11:14:54.579Z,4.352
2022-09-20T11:16:55.562Z,0.842
2022-09-20T11:18:57.348Z,2.667
2022-09-20T11:20:58.588Z,0.702
2022-09-20T11:22:59.507Z,4.914
2022-09-20T11:25:01.210Z,3.369
2022-09-20T11:27:03.002Z,0.842
2022-09-20T11:29:03.950Z,4.633
2022-09-20T11:31:04.822Z,6.177
2022-09-20T11:33:06.619Z,6.598
2022-09-20T11:35:07.818Z,2.386
2022-09-20T11:39:10.865Z,1.965
2022-09-20T11:41:12.401Z,2.246
2022-09-20T11:43:14.158Z,1.404
2022-09-20T11:45:15.668Z,0.14
2022-09-20T11:49:18.969Z,3.229
2022-09-20T11:51:20.658Z,0
2022-09-20T11:53:21.777Z,3.088
2022-09-20T11:55:22.876Z,1.263
2022-09-20T11:59:26.728Z,0.561
2022-09-20T12:01:28.770Z,3.65
2022-09-20T12:05:30.959Z,7.581
2022-09-20T12:07:32.084Z,3.229
2022-09-20T12:09:33.459Z,4.352
2022-09-20T12:11:35.180Z,3.229
2022-09-20T12:13:36.327Z,0.842
2022-09-20T12:15:37.481Z,4.633
2022-09-20T12:17:38.823Z,0.28
2022-09-20T12:19:40.309Z,1.544
2022-09-20T12:21:41.402Z,0.14
2022-09-20T12:23:42.875Z,1.404
2022-09-20T12:25:44.315Z,0
2022-09-20T12:27:45.188Z,0.561
2022-09-20T12:29:46.240Z,0.421
2022-09-20T12:31:47.239Z,0.842
2022-09-20T12:33:48.606Z,1.544
2022-09-20T12:35:50.945Z,7.02
2022-09-20T12:37:52.248Z,1.825
2022-09-20T12:39:53.970Z,0.702
2022-09-20T12:41:55.240Z,0
2022-09-20T12:43:56.992Z,0.561
2022-09-20T12:46:02.999Z,0
2022-09-20T12:48:00.185Z,0
2022-09-20T12:50:01.841Z,0
2022-09-20T12:52:02.971Z,0.982
2022-09-20T12:54:04.408Z,0.28
2022-09-20T12:56:05.618Z,0.702
2022-09-20T12:58:07.259Z,1.544
2022-09-20T13:00:08.466Z,0.421
2022-09-20T13:02:09.832Z,0.982
2022-09-20T13:04:11.349Z,0
2022-09-20T13:06:12.531Z,0
2022-09-20T13:08:14.258Z,0.28
2022-09-20T13:10:15.112Z,4.914
2022-09-20T13:12:16.032Z,3.229
2022-09-20T13:14:17.041Z,2.808
2022-09-20T13:16:18.296Z,4.071
2022-09-20T13:18:20.072Z,1.684
2022-09-20T13:20:22.110Z,7.581
2022-09-20T13:22:23.477Z,7.16
2022-09-20T13:24:24.530Z,2.527
2022-09-20T13:26:25.551Z,3.51
2022-09-20T13:30:27.414Z,0.561
2022-09-20T13:32:28.311Z,0.14
2022-09-20T13:34:29.713Z,1.965
2022-09-20T13:36:30.897Z,2.948
2022-09-20T13:40:33.397Z,0.982
2022-09-20T13:42:34.145Z,3.369
2022-09-20T13:44:35.750Z,0.561
2022-09-20T13:46:37.579Z,2.246
2022-09-20T13:48:38.638Z,0
2022-09-20T13:52:41.418Z,0.842
2022-09-20T13:54:42.334Z,1.684
2022-09-20T13:56:43.165Z,4.071
2022-09-20T13:58:44.818Z,1.263
2022-09-20T14:02:47.685Z,2.667
2022-09-20T14:04:49.103Z,1.684
2022-09-20T14:06:50.037Z,3.51
2022-09-20T14:08:51.479Z,2.246
2022-09-20T14:12:54.806Z,1.684
2022-09-20T14:14:55.689Z,1.544
2022-09-20T14:16:57.075Z,2.106
2022-09-20T14:18:57.932Z,2.808
2022-09-20T14:20:59.610Z,1.965
2022-09-20T14:23:01.282Z,1.684
2022-09-20T14:25:02.414Z,1.684
2022-09-20T14:27:03.310Z,3.369
2022-09-20T14:29:04.782Z,3.088
2022-09-20T14:31:06.582Z,1.544
2022-09-20T14:33:07.557Z,1.684
2022-09-20T14:35:08.563Z,2.808
2022-09-20T14:37:09.875Z,0.28
2022-09-20T14:39:10.684Z,2.386
2022-09-20T14:41:12.238Z,2.667
2022-09-20T14:43:13.510Z,5.194
2022-09-20T14:45:14.505Z,6.598
2022-09-20T14:47:15.903Z,3.51
2022-09-20T14:49:17.032Z,0.14
2022-09-20T14:51:18.106Z,0
2022-09-20T14:53:19.396Z,1.684
2022-09-20T14:55:20.665Z,1.263
2022-09-20T14:57:21.819Z,2.527
2022-09-20T14:59:23.525Z,3.369
2022-09-20T15:01:25.326Z,1.404
2022-09-20T15:03:26.784Z,3.369
2022-09-20T15:05:27.686Z,2.527
2022-09-20T15:07:28.975Z,0.702
2022-09-20T15:11:31.481Z,1.123
2022-09-20T15:13:32.976Z,0.421
2022-09-20T15:15:34.641Z,0.702
2022-09-20T15:17:35.760Z,1.544
2022-09-20T15:19:37.519Z,0.14
2022-09-20T15:21:38.871Z,1.544
2022-09-20T15:23:39.816Z,3.369
2022-09-20T15:27:42.680Z,2.106
2022-09-20T15:29:44.039Z,4.492
2022-09-20T15:33:46.806Z,4.773
2022-09-20T15:35:48.503Z,4.352
2022-09-20T15:37:50.199Z,5.194
2022-09-20T15:39:52.049Z,1.965
2022-09-20T15:41:53.650Z,0.702
2022-09-20T15:43:55.112Z,0.702
2022-09-20T15:45:56.481Z,0.14
2022-09-20T15:47:57.482Z,0.14
2022-09-20T15:49:58.765Z,4.914
2022-09-20T15:54:01.095Z,0.561
2022-09-20T15:56:03.035Z,1.684
2022-09-20T15:58:04.791Z,0.561
2022-09-20T16:00:05.886Z,1.544
2022-09-20T16:02:06.908Z,3.51
2022-09-20T16:04:08.061Z,6.458
2022-09-20T16:06:09.601Z,5.054
2022-09-20T16:08:11.453Z,1.123
2022-09-20T16:12:14.308Z,2.667
2022-09-20T16:14:15.749Z,1.123
2022-09-20T16:16:17.090Z,0.14
2022-09-20T16:18:17.945Z,0.842
2022-09-20T16:20:19.481Z,3.369
2022-09-20T16:22:21.125Z,3.65
2022-09-20T16:24:22.662Z,1.263
2022-09-20T16:26:24.522Z,0.842
2022-09-20T16:28:25.923Z,0.702
2022-09-20T16:30:27.482Z,2.106
2022-09-20T16:32:28.475Z,4.212
2022-09-20T16:36:30.491Z,0.421
2022-09-20T16:38:31.986Z,0.14
2022-09-20T16:40:33.319Z,0
2022-09-20T16:42:34.776Z,2.386
2022-09-20T16:44:36.389Z,0
2022-09-20T16:46:37.512Z,0
2022-09-20T16:48:39.183Z,0
2022-09-20T16:50:40.454Z,0
2022-09-20T16:52:41.454Z,0
2022-09-20T16:54:42.427Z,0.702
2022-09-20T16:56:43.529Z,0
2022-09-20T16:58:45.535Z,0
2022-09-20T17:00:45.873Z,0
2022-09-20T17:02:47.906Z,0
2022-09-20T17:04:48.498Z,0
2022-09-20T17:06:50.030Z,0
2022-09-20T17:08:53.617Z,0
2022-09-20T17:10:53.163Z,0
2022-09-20T17:12:54.806Z,0
2022-09-20T17:14:55.727Z,0
2022-09-20T17:16:56.815Z,0
2022-09-20T17:18:58.101Z,0
2022-09-20T17:20:59.950Z,0
2022-09-20T17:23:01.625Z,0
2022-09-20T17:25:02.691Z,0
2022-09-20T17:27:03.721Z,0
2022-09-20T17:29:05.031Z,0
2022-09-20T17:31:06.430Z,0
2022-09-20T17:31:54.867Z,0
2022-09-20T17:33:51.766Z,0
2022-09-20T17:35:52.708Z,0
2022-09-20T17:39:55.445Z,0
2022-09-20T17:41:56.548Z,0
2022-09-20T17:43:57.976Z,0
2022-09-20T17:45:58.930Z,0
2022-09-20T17:48:00.831Z,0
2022-09-20T17:50:01.909Z,0
2022-09-20T17:52:03.285Z,0
2022-09-20T17:54:04.611Z,0
2022-09-20T17:56:06.146Z,0
2022-09-20T17:58:07.448Z,0
2022-09-20T18:00:09.372Z,0
2022-09-20T18:02:11.264Z,0
2022-09-20T18:04:12.332Z,0
2022-09-20T18:06:13.607Z,0
2022-09-20T18:08:14.792Z,0
2022-09-20T18:12:21.353Z,0
2022-09-20T18:14:19.451Z,0
2022-09-20T18:16:20.743Z,0
2022-09-20T18:18:21.692Z,1.263
2022-09-20T18:20:22.987Z,0
2022-09-20T18:22:24.206Z,0
2022-09-20T18:24:26.021Z,0
2022-09-20T18:26:27.094Z,0
2022-09-20T18:28:28.813Z,0
2022-09-20T18:30:29.780Z,0
2022-09-20T18:32:31.494Z,0
2022-09-20T18:34:32.983Z,0
2022-09-20T18:36:34.517Z,0
2022-09-20T18:38:35.867Z,0
2022-09-20T18:40:37.076Z,0
2022-09-20T18:42:38.343Z,0
2022-09-20T18:44:40.155Z,0
2022-09-20T18:46:41.886Z,0
2022-09-20T18:48:43.678Z,0
2022-09-20T18:50:45.264Z,0
2022-09-20T18:52:46.286Z,0
2022-09-20T18:54:47.644Z,2.106
2022-09-20T18:56:49.411Z,0.982
2022-09-20T18:58:50.668Z,1.825
2022-09-20T19:00:52.372Z,0
2022-09-20T19:02:53.894Z,1.263
2022-09-20T19:04:55.324Z,0
2022-09-20T19:06:56.519Z,0
2022-09-20T19:08:58.146Z,0
2022-09-20T19:10:59.228Z,0
2022-09-20T19:13:00.326Z,0
2022-09-20T19:15:02.269Z,0
2022-09-20T19:17:03.780Z,0
2022-09-20T19:19:05.581Z,0
2022-09-20T19:21:07.028Z,0
2022-09-20T19:23:08.200Z,0
2022-09-20T19:25:10.025Z,0
2022-09-20T19:27:10.936Z,0
2022-09-20T19:29:12.081Z,0
2022-09-20T19:31:13.429Z,0
2022-09-20T19:33:14.713Z,0
2022-09-20T19:35:16.441Z,1.544
2022-09-20T19:37:17.527Z,1.263
2022-09-20T19:39:18.809Z,0.421
2022-09-20T19:41:19.881Z,0
2022-09-20T19:43:20.941Z,0
2022-09-20T19:45:21.997Z,0
2022-09-20T19:47:23.108Z,2.246
2022-09-20T19:49:24.524Z,0.14
2022-09-20T19:51:25.480Z,0
2022-09-20T19:53:27.390Z,0
2022-09-20T19:55:29.099Z,0
2022-09-20T19:57:30.200Z,0
2022-09-20T19:59:31.336Z,0
2022-09-20T20:03:34.545Z,1.825
2022-09-20T20:05:35.582Z,0
2022-09-20T20:07:37.496Z,0
2022-09-20T20:09:38.916Z,0
2022-09-20T20:11:39.896Z,0
2022-09-20T20:15:42.914Z,0
2022-09-20T20:17:44.460Z,0
2022-09-20T20:19:45.543Z,0
2022-09-20T20:21:46.593Z,0
2022-09-20T20:23:48.395Z,0
2022-09-20T20:25:49.773Z,0
2022-09-20T20:27:51.520Z,0
2022-09-20T20:29:52.875Z,0
2022-09-20T20:31:53.988Z,0
2022-09-20T20:33:55.571Z,1.825
2022-09-20T20:35:57.491Z,0
2022-09-20T20:37:59.407Z,0
2022-09-20T20:40:01.021Z,0
2022-09-20T20:42:02.821Z,0
2022-09-20T20:46:05.826Z,0
2022-09-20T20:48:07.386Z,0.561
2022-09-20T20:50:08.680Z,0
2022-09-20T20:52:09.628Z,0
2022-09-20T20:54:10.807Z,0
2022-09-20T20:56:12.387Z,0
2022-09-20T20:58:13.444Z,0
2022-09-20T21:00:15.186Z,0
2022-09-20T21:02:16.446Z,0
2022-09-20T21:04:18.207Z,0
2022-09-20T21:06:19.675Z,0
2022-09-20T21:08:20.791Z,0
2022-09-20T21:10:22.121Z,0
2022-09-20T21:12:23.631Z,0
2022-09-20T21:14:25.003Z,0
2022-09-20T21:16:25.947Z,0
2022-09-20T21:18:27.765Z,0
2022-09-20T21:20:29.287Z,0
2022-09-20T21:22:30.970Z,0
2022-09-20T21:24:32.848Z,0.982
2022-09-20T21:26:34.659Z,0
2022-09-20T21:28:35.823Z,0
2022-09-20T21:30:37.683Z,0
2022-09-20T21:32:38.899Z,0
2022-09-20T21:34:40.494Z,0
2022-09-20T21:36:42.321Z,0
2022-09-20T21:38:43.534Z,0
2022-09-20T21:40:45.434Z,0
2022-09-20T21:42:46.401Z,0
2022-09-20T21:46:49.112Z,0
2022-09-20T21:48:50.324Z,0.982
2022-09-20T21:50:51.355Z,0.982
2022-09-20T21:52:52.669Z,0
2022-09-20T21:54:54.688Z,0
2022-09-20T21:56:56.094Z,0
2022-09-20T21:58:57.919Z,0
2022-09-20T22:00:59.718Z,0
2022-09-20T22:03:02.363Z,1.965
2022-09-20T22:05:03.465Z,0
2022-09-20T22:07:05.084Z,0
2022-09-20T22:09:06.629Z,0
2022-09-20T22:11:11.137Z,0
2022-09-20T22:13:09.386Z,0
2022-09-20T22:15:11.230Z,1.684
2022-09-20T22:17:12.493Z,0.14
2022-09-20T22:19:14.079Z,0
2022-09-20T22:21:15.040Z,0
2022-09-20T22:23:16.845Z,0
2022-09-20T22:25:18.483Z,0
2022-09-20T22:27:19.558Z,0
2022-09-20T22:29:21.407Z,0
2022-09-20T22:31:22.989Z,0
2022-09-20T22:33:24.703Z,0
2022-09-20T22:35:26.274Z,0
2022-09-20T22:37:28.049Z,0
2022-09-20T22:39:29.343Z,0
2022-09-20T22:41:30.938Z,0
2022-09-20T22:43:32.312Z,0
2022-09-20T22:45:34.272Z,0
2022-09-20T22:47:35.309Z,0
2022-09-20T22:49:36.453Z,0
2022-09-20T22:51:37.660Z,0
2022-09-20T22:53:38.809Z,0
2022-09-20T22:55:40.158Z,0
2022-09-20T22:59:42.897Z,0
2022-09-20T23:01:44.236Z,0
2022-09-20T23:03:45.788Z,0
2022-09-20T23:05:47.428Z,0
2022-09-20T23:09:50.340Z,0
2022-09-20T23:11:52.162Z,0
2022-09-20T23:13:53.647Z,0
2022-09-20T23:15:54.548Z,0
2022-09-20T23:17:56.166Z,0
2022-09-20T23:19:57.371Z,0
2022-09-20T23:21:58.449Z,0
2022-09-20T23:24:00.083Z,0
2022-09-20T23:26:01.509Z,0
2022-09-20T23:28:03.274Z,0
2022-09-20T23:30:04.455Z,0
2022-09-20T23:32:06.158Z,0
2022-09-20T23:34:08.055Z,0
2022-09-20T23:36:09.481Z,0
2022-09-20T23:38:10.553Z,0
2022-09-20T23:42:13.484Z,0
2022-09-20T23:44:15.158Z,0
2022-09-20T23:46:16.767Z,0
2022-09-20T23:48:18.139Z,0
2022-09-20T23:52:21.318Z,0
2022-09-20T23:54:23.184Z,0
2022-09-20T23:56:24.290Z,0
2022-09-20T23:58:26.106Z,0
